Friday, November 17, 2017, 2:37 PM EST
Back to Local

KRUT, Rutland, Rutland-southern Vermont Regional Airport

Location: North Clarendon, VT, United States Lat: 43.533
Local Time: 2:37 PM EST (19:37 GMT) Lon: -72.95
Time Zone: US/Eastern Elev: 787 ft

Show me the last for .
Show Coded

Time T Td Feel RH Dir Speed Gust Alt SLP Vis Weather Sky Remarks
2017-11-17 13:56 34 22 25 60 330° 13 - 29.97 30.04 10 CLR None
2017-11-17 12:56 33 23 25 66 340° 10 - 29.98 30.04 10 OVC031 6-hr Precip Total (1pm): 0.00"
6-hr Min Temp (1pm): 28.9°F
6-hr Max Temp (1pm): 33.1°F
2017-11-17 11:56 30 23 22 74 340° 8 - 29.99 30.06 10 OVC027 None
2017-11-17 10:56 30 22 21 71 330° 10 - 30.01 30.08 10 BKN025 OVC033 None
2017-11-17 09:56 30 23 18 74 320° 14 18 30.02 30.09 10 OVC027 1-hr Precip Total: Trace
6-hr Precip Total (10am): 0.00"
2017-11-17 08:56 29 23 15 78 320° 16 22 30.00 30.07 9 -SN OVC025 1-hr Precip Total: Trace
2017-11-17 07:56 30 24 21 78 340° 10 - 29.98 30.04 10 OVC025 1-hr Precip Total: Trace
2017-11-17 06:56 31 24 19 75 300° 13 20 29.95 30.01 10 UP OVC025 1-hr Precip Total: Trace
6-hr Precip Total (7am): 0.00"
24-hr Precip Total (7am): 0.13"
6-hr Min Temp (7am): 30.9°F
6-hr Max Temp (7am): 35.1°F
2017-11-17 05:56 31 24 19 75 290° 12 18 29.92 29.98 9 -SN OVC027 1-hr Precip Total: Trace
2017-11-17 04:56 32 23 19 68 290° 15 22 29.88 29.94 10 OVC025 1-hr Precip Total: Trace
2017-11-17 03:56 33 26 25 75 290° 10 - 29.85 29.92 7 -SN OVC023 1-hr Precip Total: Trace
6-hr Precip Total (4am): 0.00"
2017-11-17 02:56 34 26 22 72 280° 13 23 29.82 29.89 10 -RA OVC025 1-hr Precip Total: Trace
2017-11-17 01:56 35 27 24 72 290° 14 21 29.80 29.87 10 UP BKN029 OVC036 1-hr Precip Total: Trace
2017-11-17 01:44 36 28 29 74 290° 9 - 29.80 - 10 UP OVC029 1-hr Precip Total: Trace
2017-11-17 00:56 35 30 27 81 280° 10 - 29.78 29.85 10 UP FEW027 BKN034 OVC042 1-hr Precip Total: Trace
6-hr Precip Total (1am): 0.01"
6-hr Min Temp (1am): 35.1°F
6-hr Max Temp (1am): 43.0°F
2017-11-17 00:54 36 30 29 80 290° 9 - 29.78 - 10 UP FEW027 BKN034 OVC042 1-hr Precip Total: Trace
2017-11-17 00:09 36 32 32 86 300° 5 - 29.77 - 10 -RA BKN024 OVC039 1-hr Precip Total: Trace
2017-11-16 23:56 36 32 30 85 300° 7 - 29.77 29.83 10 -RA SCT026 BKN032 OVC038 1-hr Precip Total: Trace
24-hr Min Temp (12am): 35.1°F
24-hr Max Temp (12am): 43.0°F
2017-11-16 23:35 36 32 29 86 290° 8 - 29.76 - 10 -RA FEW026 BKN034 OVC042 1-hr Precip Total: Trace
2017-11-16 22:56 37 32 27 81 290° 9 17 29.75 29.82 10 -RA OVC025 1-hr Precip Total: Trace
2017-11-16 22:47 37 30 28 74 310° 10 16 29.75 - 10 -RA BKN026 OVC031 1-hr Precip Total: Trace
2017-11-16 22:09 39 34 29 80 280° 14 21 29.73 - 10 FEW016 SCT035 OVC060 1-hr Precip Total: Trace
2017-11-16 21:56 39 34 29 81 260° 13 21 29.72 29.78 10 -RA SCT016 BKN026 OVC060 1-hr Precip Total: 0.01"
6-hr Precip Total (10pm): 0.01"
2017-11-16 21:37 39 36 29 86 250° 16 22 29.72 - 5 -RA FEW015 BKN021 OVC037 1-hr Precip Total: Trace
2017-11-16 20:56 42 35 37 75 240° 9 - 29.71 29.78 10 FEW041 OVC060 None
2017-11-16 19:56 42 37 34 82 240° 10 16 29.70 29.77 10 FEW025 BKN047 BKN070 1-hr Precip Total: Trace
2017-11-16 18:56 43 39 39 85 250° 6 - 29.71 29.77 10 SCT039 BKN048 OVC065 1-hr Precip Total: 0.01"
6-hr Precip Total (7pm): 0.04"
6-hr Min Temp (7pm): 39.9°F
6-hr Max Temp (7pm): 43.0°F
2017-11-16 17:56 40 39 36 96 120° 6 - 29.69 29.76 10 FEW003 BKN037 OVC050 None
2017-11-16 16:56 41 40 39 95 170° 3 - 29.68 29.75 10 FEW029 OVC055 1-hr Precip Total: Trace
2017-11-16 15:56 42 40 38 91 140° 6 - 29.69 29.75 10 -RA FEW028 BKN034 OVC047 1-hr Precip Total: Trace
6-hr Precip Total (4pm): 0.03"
2017-11-16 14:56 42 40 39 91 160° 5 - 29.69 29.75 10 FEW048 OVC070 1-hr Precip Total: Trace

Support USWX by starting your Amazon purchase here.